Главная страница
METAR-TAF:

METAR-TAF

Аэропорты :

Саратов-Центральный

Саратов, Россия

широта: 51-34-12N, долгота: 046-04-12E, высота над уровнем моря: 166 м

Текущие метеонаблюдения

Эта сводка был подготовлена 20 минут назад, в 23:00 UTC
Ветер 6 Узел от восточно-юго-восточный
Температура -9°C
Влажность 100%
Давление 1036 hPa
Видимость: 2000 м
Сплошная облачность на высоте 400 фута
снег, дымка

METAR: UWSS 182300Z 11003MPS 2000 SN BR OVC004 M09/M09 Q1036 R12/820245 NOSIG RMK QFE765

Время: 02:20 (23:20 UTC)

Прогноз

Эта сводка был подготовлена 3 часа и 20 минут назад, в 20:00 UTC
Прогноз действительный с 18-го 21 UTC до 19-го 06 UTC
Ветер 6 Узел от восточно-юго-восточный
Видимость: 2100 м
Сплошная облачность на высоте 600 фута
небольшой снег, дымка
временами
С 18-го 21 UTC до 19-го 06 UTC
Видимость: 0300 м
на высоте 200 фута
переохлажденный туман

TAF: UWSS 182000Z 1821/1906 11003MPS 2100 -SN BR OVC006 TEMPO 1821/1906 0300 FZFG VV002

Метеонаблюдения и прогнозы для более 4000 аэропортов (сводки METAR и TAF).

Имеющиеся станции представлены на карте желтыми и красными точками.

Чтобы увидеть название станции, наведите на нее мышь.

Затем щелкните, чтобы увидеть метеонаблюдения и метеопрогнозы.

Управление картой: чтобы увеличить масштаб, щелкните зеленые кнопки с черным крестиком; чтобы уменьшить масштаб, щелкните зеленую кнопку с тире; для просмотра соседних карт щелкайте зеленые стрелки.


METAR-TAF: